Time;durP1;ratioP1;P1;durP2;ratioP2;P2;SDS_P1;SDS_P2;PMS_P1;PMS_P2;Temp;Humidity;BMP_temperature;BMP_pressure;BME280_temperature;BME280_humidity;BME280_pressure;Samples;Min_cycle;Max_cycle;Signal;HPM_P1;HPM_P2
2021/09/24 00:01:15;;;;;;;;;;;;;;;;;;5082829;28;19947;-87
2021/09/24 00:03:43;;;;;;;;;;;;;;;;;;5071772;28;20322;-88
2021/09/24 00:06:11;;;;;;;;;;;;;;;;;;5072147;28;19931;-89
2021/09/24 00:08:51;;;;;;;;;;;;;;;;;;5103203;28;19916;-88
2021/09/24 00:11:20;;;;;;;;;;;;;;;;;;5098003;28;19916;-89
2021/09/24 00:13:48;;;;;;;;;;;;;;;;;;5074191;28;19924;-88
2021/09/24 00:16:16;;;;;;;;;;;;;;;;;;5069150;28;20305;-86
2021/09/24 00:18:45;;;;;;;;;;;;;;;;;;5088084;28;19928;-89
2021/09/24 00:21:13;;;;;;;;;;;;;;;;;;5076991;28;19928;-87
2021/09/24 00:23:41;;;;;;;;;;;;;;;;;;5069244;28;19932;-85
2021/09/24 00:26:11;;;;;;;;;;;;;;;;;;5072332;28;19931;-87
2021/09/24 00:28:39;;;;;;;;;;;;;;;;;;5068471;28;19929;-86
2021/09/24 00:31:07;;;;;;;;;;;;;;;;;;5091447;28;19924;-87
2021/09/24 00:33:36;;;;;;;;;;;;;;;;;;5092082;28;19925;-85
2021/09/24 00:36:06;;;;;;;;;;;;;;;;;;5095174;28;19924;-88
2021/09/24 00:38:38;;;;;;;;;;;;;;;;;;5089025;28;20198;-88
2021/09/24 00:41:06;;;;;;;;;;;;;;;;;;5068279;28;19924;-87
2021/09/24 00:43:36;;;;;;;;;;;;;;;;;;5092166;28;19924;-88
2021/09/24 00:46:04;;;;;;;;;;;;;;;;;;5091928;28;19927;-88
2021/09/24 00:48:33;;;;;;;;;;;;;;;;;;5092094;28;19924;-88
2021/09/24 00:51:01;;;;;;;;;;;;;;;;;;5074981;28;19924;-87
2021/09/24 00:53:31;;;;;;;;;;;;;;;;;;5087422;28;20350;-86
2021/09/24 00:56:00;;;;;;;;;;;;;;;;;;5069390;28;19928;-87
2021/09/24 00:58:28;;;;;;;;;;;;;;;;;;5068789;28;19924;-87
2021/09/24 01:00:58;;;;;;;;;;;;;;;;;;5072030;28;19931;-87
2021/09/24 01:03:26;;;;;;;;;;;;;;;;;;5091793;28;19970;-88
2021/09/24 01:05:55;;;;;;;;;;;;;;;;;;5071578;28;19931;-88
2021/09/24 01:08:23;;;;;;;;;;;;;;;;;;5094540;28;19932;-89
2021/09/24 01:10:51;;;;;;;;;;;;;;;;;;5072172;28;19999;-88
2021/09/24 01:13:19;;;;;;;;;;;;;;;;;;5070181;28;20103;-89
2021/09/24 01:15:48;;;;;;;;;;;;;;;;;;5068269;28;19924;-88
2021/09/24 01:18:17;;;;;;;;;;;;;;;;;;5072992;28;19924;-88
2021/09/24 01:20:46;;;;;;;;;;;;;;;;;;5074161;28;19935;-87
2021/09/24 01:23:15;;;;;;;;;;;;;;;;;;5073783;28;19931;-88
2021/09/24 01:25:44;;;;;;;;;;;;;;;;;;5070016;28;19931;-88
2021/09/24 01:28:12;;;;;;;;;;;;;;;;;;5069578;28;19924;-88
2021/09/24 01:30:40;;;;;;;;;;;;;;;;;;5064381;28;19928;-88
2021/09/24 01:33:08;;;;;;;;;;;;;;;;;;5069210;28;19932;-88
2021/09/24 01:35:37;;;;;;;;;;;;;;;;;;5067304;28;19924;-87
2021/09/24 01:38:05;;;;;;;;;;;;;;;;;;5070481;28;19924;-88
2021/09/24 01:40:35;;;;;;;;;;;;;;;;;;5083887;28;19928;-87
2021/09/24 01:43:03;;;;;;;;;;;;;;;;;;5074062;28;20310;-87
2021/09/24 01:45:32;;;;;;;;;;;;;;;;;;5087096;28;19924;-88
2021/09/24 01:48:00;;;;;;;;;;;;;;;;;;5069116;28;19924;-89
2021/09/24 01:50:28;;;;;;;;;;;;;;;;;;5072650;28;20390;-87
2021/09/24 01:52:57;;;;;;;;;;;;;;;;;;5071065;28;19931;-89
2021/09/24 01:55:25;;;;;;;;;;;;;;;;;;5089239;28;20020;-87
2021/09/24 01:57:54;;;;;;;;;;;;;;;;;;5071536;28;19932;-87
2021/09/24 02:00:23;;;;;;;;;;;;;;;;;;5073671;28;19928;-88
2021/09/24 02:02:52;;;;;;;;;;;;;;;;;;5066480;28;19932;-88
2021/09/24 02:05:20;;;;;;;;;;;;;;;;;;5070977;28;20440;-87
2021/09/24 02:07:49;;;;;;;;;;;;;;;;;;5067767;28;19935;-87
2021/09/24 02:10:17;;;;;;;;;;;;;;;;;;5069137;28;20358;-86
2021/09/24 02:12:45;;;;;;;;;;;;;;;;;;5061580;28;19932;-88
2021/09/24 02:15:15;;;;;;;;;;;;;;;;;;5070914;28;19935;-88
2021/09/24 02:17:43;;;;;;;;;;;;;;;;;;5065957;28;19939;-88
2021/09/24 02:20:12;;;;;;;;;;;;;;;;;;5069144;28;19933;-88
2021/09/24 02:22:40;;;;;;;;;;;;;;;;;;5072655;28;19924;-88
2021/09/24 02:25:09;;;;;;;;;;;;;;;;;;5091257;28;19932;-88
2021/09/24 02:27:38;;;;;;;;;;;;;;;;;;5072417;28;19924;-88
2021/09/24 02:30:07;;;;;;;;;;;;;;;;;;5068396;28;19955;-88
2021/09/24 02:32:37;;;;;;;;;;;;;;;;;;5114860;28;19918;-88
2021/09/24 02:35:06;;;;;;;;;;;;;;;;;;5104109;28;20270;-87
2021/09/24 02:37:34;;;;;;;;;;;;;;;;;;5071186;28;20398;-86
2021/09/24 02:40:02;;;;;;;;;;;;;;;;;;5087835;28;19928;-87
2021/09/24 02:42:31;;;;;;;;;;;;;;;;;;5071677;28;19924;-88
2021/09/24 02:44:59;;;;;;;;;;;;;;;;;;5082167;28;20031;-89
2021/09/24 02:47:28;;;;;;;;;;;;;;;;;;5083947;28;19924;-88
2021/09/24 02:49:57;;;;;;;;;;;;;;;;;;5091509;28;19924;-88
2021/09/24 02:52:26;;;;;;;;;;;;;;;;;;5072986;28;19936;-88
2021/09/24 02:54:54;;;;;;;;;;;;;;;;;;5080873;28;19924;-87
2021/09/24 02:57:22;;;;;;;;;;;;;;;;;;5089350;28;19935;-87
2021/09/24 02:59:50;;;;;;;;;;;;;;;;;;5069908;28;19931;-89
2021/09/24 03:02:19;;;;;;;;;;;;;;;;;;5068777;28;19924;-88
2021/09/24 03:04:47;;;;;;;;;;;;;;;;;;5063509;28;19925;-87
2021/09/24 03:07:17;;;;;;;;;;;;;;;;;;5074555;28;19924;-85
2021/09/24 03:09:45;;;;;;;;;;;;;;;;;;5069789;28;19928;-89
2021/09/24 03:12:13;;;;;;;;;;;;;;;;;;5071809;28;19924;-87
2021/09/24 03:14:42;;;;;;;;;;;;;;;;;;5070373;28;20309;-86
2021/09/24 03:17:10;;;;;;;;;;;;;;;;;;5069943;28;19928;-87
2021/09/24 03:19:38;;;;;;;;;;;;;;;;;;5073486;28;20390;-88
2021/09/24 03:22:06;;;;;;;;;;;;;;;;;;5087853;28;19924;-88
2021/09/24 03:24:36;;;;;;;;;;;;;;;;;;5065053;28;19931;-88
2021/09/24 03:27:04;;;;;;;;;;;;;;;;;;5071235;28;19924;-87
2021/09/24 03:29:33;;;;;;;;;;;;;;;;;;5070721;28;19952;-88
2021/09/24 03:32:02;;;;;;;;;;;;;;;;;;5068188;28;19928;-89
2021/09/24 03:34:31;;;;;;;;;;;;;;;;;;5074721;28;19924;-88
2021/09/24 03:37:00;;;;;;;;;;;;;;;;;;5073847;28;19931;-88
2021/09/24 03:39:28;;;;;;;;;;;;;;;;;;5090588;28;20442;-86
2021/09/24 03:41:58;;;;;;;;;;;;;;;;;;5093193;28;19931;-87
2021/09/24 03:44:26;;;;;;;;;;;;;;;;;;5065401;28;19932;-88
2021/09/24 03:46:55;;;;;;;;;;;;;;;;;;5068612;28;19943;-88
2021/09/24 03:49:24;;;;;;;;;;;;;;;;;;5080457;28;19924;-88
2021/09/24 03:51:52;;;;;;;;;;;;;;;;;;5088124;28;20491;-86
2021/09/24 03:54:20;;;;;;;;;;;;;;;;;;5090087;28;19928;-88
2021/09/24 03:56:48;;;;;;;;;;;;;;;;;;5072063;28;20306;-86
2021/09/24 03:59:18;;;;;;;;;;;;;;;;;;5070152;28;20539;-86
2021/09/24 04:01:47;;;;;;;;;;;;;;;;;;5090912;28;19928;-88
2021/09/24 04:04:16;;;;;;;;;;;;;;;;;;5085281;28;19932;-88
2021/09/24 04:06:44;;;;;;;;;;;;;;;;;;5071729;28;19935;-88
2021/09/24 04:09:13;;;;;;;;;;;;;;;;;;5073173;28;19924;-87
2021/09/24 04:11:41;;;;;;;;;;;;;;;;;;5092037;28;19932;-86
2021/09/24 04:14:09;;;;;;;;;;;;;;;;;;5068611;28;19928;-87
2021/09/24 04:16:39;;;;;;;;;;;;;;;;;;5075016;28;19924;-87
2021/09/24 04:19:07;;;;;;;;;;;;;;;;;;5074752;28;19925;-87
2021/09/24 04:21:36;;;;;;;;;;;;;;;;;;5093272;28;19943;-87
2021/09/24 04:24:04;;;;;;;;;;;;;;;;;;5072589;28;19935;-86
2021/09/24 04:26:33;;;;;;;;;;;;;;;;;;5090674;28;19931;-87
2021/09/24 04:29:03;;;;;;;;;;;;;;;;;;5067115;28;19947;-88
2021/09/24 04:31:31;;;;;;;;;;;;;;;;;;5070120;28;19928;-87
2021/09/24 04:34:01;;;;;;;;;;;;;;;;;;5074587;28;20398;-88
2021/09/24 04:36:29;;;;;;;;;;;;;;;;;;5072241;28;19932;-88
2021/09/24 04:38:57;;;;;;;;;;;;;;;;;;5072892;28;19932;-87
2021/09/24 04:41:25;;;;;;;;;;;;;;;;;;5091960;28;19935;-87
2021/09/24 04:43:53;;;;;;;;;;;;;;;;;;5071179;28;19931;-88
2021/09/24 04:46:22;;;;;;;;;;;;;;;;;;5066649;28;19931;-87
2021/09/24 04:48:50;;;;;;;;;;;;;;;;;;5091109;28;19931;-87
2021/09/24 04:51:19;;;;;;;;;;;;;;;;;;5074801;28;19931;-87
2021/09/24 04:53:48;;;;;;;;;;;;;;;;;;5082445;28;19924;-88
2021/09/24 04:56:16;;;;;;;;;;;;;;;;;;5114896;28;19924;-88
2021/09/24 04:58:44;;;;;;;;;;;;;;;;;;5089663;28;19931;-87
2021/09/24 05:01:12;;;;;;;;;;;;;;;;;;5073453;28;19924;-87
2021/09/24 05:03:41;;;;;;;;;;;;;;;;;;5073627;28;19925;-87
2021/09/24 05:06:09;;;;;;;;;;;;;;;;;;5067870;28;19932;-87
2021/09/24 05:08:38;;;;;;;;;;;;;;;;;;5086027;28;19924;-88
2021/09/24 05:11:07;;;;;;;;;;;;;;;;;;5077592;28;19924;-86
2021/09/24 05:13:35;;;;;;;;;;;;;;;;;;5097331;28;19939;-87
2021/09/24 05:16:03;;;;;;;;;;;;;;;;;;5082765;28;19924;-88
2021/09/24 05:18:31;;;;;;;;;;;;;;;;;;5091990;28;20402;-87
2021/09/24 05:21:00;;;;;;;;;;;;;;;;;;5089619;28;19938;-87
2021/09/24 05:23:29;;;;;;;;;;;;;;;;;;5069000;28;19932;-87
2021/09/24 05:25:59;;;;;;;;;;;;;;;;;;5064091;28;19995;-86
2021/09/24 05:28:27;;;;;;;;;;;;;;;;;;5090160;28;19931;-88
2021/09/24 05:30:55;;;;;;;;;;;;;;;;;;5063896;28;20903;-87
2021/09/24 05:33:24;;;;;;;;;;;;;;;;;;5070195;28;20405;-87
2021/09/24 05:35:52;;;;;;;;;;;;;;;;;;5065069;28;20310;-88
2021/09/24 05:38:20;;;;;;;;;;;;;;;;;;5084023;28;19931;-87
2021/09/24 05:40:48;;;;;;;;;;;;;;;;;;5078475;28;20313;-84
2021/09/24 05:43:18;;;;;;;;;;;;;;;;;;5085664;28;19939;-88
2021/09/24 05:45:46;;;;;;;;;;;;;;;;;;5061267;28;19939;-87
2021/09/24 05:48:14;;;;;;;;;;;;;;;;;;5076135;28;19924;-88
2021/09/24 05:50:44;;;;;;;;;;;;;;;;;;5097487;28;19924;-87
2021/09/24 05:53:12;;;;;;;;;;;;;;;;;;5070288;28;20298;-86
2021/09/24 05:55:40;;;;;;;;;;;;;;;;;;5074943;28;19927;-88
2021/09/24 05:58:08;;;;;;;;;;;;;;;;;;5082972;28;19924;-87
2021/09/24 06:00:38;;;;;;;;;;;;;;;;;;5068276;28;20472;-85
2021/09/24 06:03:07;;;;;;;;;;;;;;;;;;5067467;28;20930;-88
2021/09/24 06:05:35;;;;;;;;;;;;;;;;;;5070989;28;19924;-87
2021/09/24 06:08:03;;;;;;;;;;;;;;;;;;5082292;28;19924;-87
2021/09/24 06:10:32;;;;;;;;;;;;;;;;;;5080477;28;19931;-88
2021/09/24 06:13:00;;;;;;;;;;;;;;;;;;5084310;28;19935;-88
2021/09/24 06:15:28;;;;;;;;;;;;;;;;;;5071105;28;19932;-87
2021/09/24 06:17:58;;;;;;;;;;;;;;;;;;5072178;28;19935;-87
2021/09/24 06:20:27;;;;;;;;;;;;;;;;;;5064971;28;20298;-87
2021/09/24 06:22:55;;;;;;;;;;;;;;;;;;5070126;28;19924;-87
2021/09/24 06:25:24;;;;;;;;;;;;;;;;;;5073197;28;19929;-87
2021/09/24 06:27:52;;;;;;;;;;;;;;;;;;5082687;28;19928;-88
2021/09/24 06:30:21;;;;;;;;;;;;;;;;;;5062610;28;20413;-88
2021/09/24 06:32:50;;;;;;;;;;;;;;;;;;5064994;28;20283;-87
2021/09/24 06:35:19;;;;;;;;;;;;;;;;;;5070968;28;19924;-87
2021/09/24 06:37:51;;;;;;;;;;;;;;;;;;5069683;28;20256;-87
2021/09/24 06:40:19;;;;;;;;;;;;;;;;;;5081228;28;19949;-87
2021/09/24 06:42:48;;;;;;;;;;;;;;;;;;5089075;28;19931;-87
2021/09/24 06:45:16;;;;;;;;;;;;;;;;;;5068835;28;19931;-88
2021/09/24 06:47:44;;;;;;;;;;;;;;;;;;5057382;28;19928;-87
2021/09/24 06:50:12;;;;;;;;;;;;;;;;;;5087602;28;20394;-87
2021/09/24 06:52:43;;;;;;;;;;;;;;;;;;5072825;28;19924;-86
2021/09/24 06:55:11;;;;;;;;;;;;;;;;;;5071277;28;19925;-86
2021/09/24 06:57:40;;;;;;;;;;;;;;;;;;5087259;28;19928;-88
2021/09/24 07:00:09;;;;;;;;;;;;;;;;;;5071896;28;19939;-87
2021/09/24 07:02:37;;;;;;;;;;;;;;;;;;5071064;28;20334;-88
2021/09/24 07:05:06;;;;;;;;;;;;;;;;;;5081943;28;19928;-88
2021/09/24 07:07:37;;;;;;;;;;;;;;;;;;5076873;28;19931;-87
2021/09/24 07:10:07;;;;;;;;;;;;;;;;;;5091970;28;19950;-87
2021/09/24 07:12:36;;;;;;;;;;;;;;;;;;5065600;28;19928;-88
2021/09/24 07:15:04;;;;;;;;;;;;;;;;;;5083679;28;19919;-87
2021/09/24 07:17:33;;;;;;;;;;;;;;;;;;5112403;28;19924;-87
2021/09/24 07:20:01;;;;;;;;;;;;;;;;;;5095738;28;19930;-88
2021/09/24 07:22:30;;;;;;;;;;;;;;;;;;5079945;28;19931;-88
2021/09/24 07:24:58;;;;;;;;;;;;;;;;;;5076264;28;19932;-88
2021/09/24 07:27:28;;;;;;;;;;;;;;;;;;5075720;28;19924;-88
2021/09/24 07:29:56;;;;;;;;;;;;;;;;;;5092055;28;19924;-88
2021/09/24 07:32:25;;;;;;;;;;;;;;;;;;5091355;28;19931;-87
2021/09/24 07:34:53;;;;;;;;;;;;;;;;;;5086033;28;19924;-88
2021/09/24 07:37:22;;;;;;;;;;;;;;;;;;5095690;28;19924;-86
2021/09/24 07:39:51;;;;;;;;;;;;;;;;;;5069986;28;19935;-87
2021/09/24 07:42:19;;;;;;;;;;;;;;;;;;5090050;28;19924;-88
2021/09/24 07:44:49;;;;;;;;;;;;;;;;;;5072345;28;19938;-87
2021/09/24 07:47:17;;;;;;;;;;;;;;;;;;5071376;28;19931;-88
2021/09/24 07:49:47;;;;;;;;;;;;;;;;;;5078920;28;20390;-88
2021/09/24 07:52:15;;;;;;;;;;;;;;;;;;5080813;28;19935;-83
2021/09/24 07:54:44;;;;;;;;;;;;;;;;;;5082205;28;19935;-84
2021/09/24 07:57:13;;;;;;;;;;;;;;;;;;5092412;28;20309;-85
2021/09/24 07:59:42;;;;;;;;;;;;;;;;;;5083656;28;20237;-85
2021/09/24 08:02:12;;;;;;;;;;;;;;;;;;5082471;28;19924;-84
2021/09/24 08:04:40;;;;;;;;;;;;;;;;;;5082419;28;20382;-85
2021/09/24 08:07:09;;;;;;;;;;;;;;;;;;5072578;28;20382;-86
2021/09/24 08:09:37;;;;;;;;;;;;;;;;;;5081543;28;19939;-87
2021/09/24 08:12:05;;;;;;;;;;;;;;;;;;5061648;28;19932;-88
2021/09/24 08:14:33;;;;;;;;;;;;;;;;;;5080949;28;19924;-88
2021/09/24 08:17:02;;;;;;;;;;;;;;;;;;5067636;28;19928;-88
2021/09/24 08:19:31;;;;;;;;;;;;;;;;;;5064250;28;19928;-87
2021/09/24 08:22:00;;;;;;;;;;;;;;;;;;5055988;28;19927;-88
2021/09/24 08:24:28;;;;;;;;;;;;;;;;;;5074791;28;19924;-88
2021/09/24 08:26:56;;;;;;;;;;;;;;;;;;5060863;28;20495;-87
2021/09/24 08:29:25;;;;;;;;;;;;;;;;;;5062807;28;19924;-88
2021/09/24 08:31:53;;;;;;;;;;;;;;;;;;5059642;28;20473;-87
2021/09/24 08:34:21;;;;;;;;;;;;;;;;;;5064562;28;19924;-86
2021/09/24 08:36:51;;;;;;;;;;;;;;;;;;5076773;28;19932;-85
2021/09/24 08:39:19;;;;;;;;;;;;;;;;;;5053374;28;19931;-87
2021/09/24 08:41:48;;;;;;;;;;;;;;;;;;5079214;28;19925;-87
2021/09/24 08:44:16;;;;;;;;;;;;;;;;;;5061977;28;20031;-87
2021/09/24 08:46:47;;;;;;;;;;;;;;;;;;5061123;28;19935;-87
2021/09/24 08:49:16;;;;;;;;;;;;;;;;;;5062931;28;20313;-88
2021/09/24 08:51:45;;;;;;;;;;;;;;;;;;5052937;28;19925;-87
2021/09/24 08:54:14;;;;;;;;;;;;;;;;;;5066647;28;19925;-87
2021/09/24 08:56:43;;;;;;;;;;;;;;;;;;5066871;28;19939;-87
2021/09/24 08:59:11;;;;;;;;;;;;;;;;;;5071706;28;20437;-87
2021/09/24 09:01:54;;;;;;;;;;;;;;;;;;5065602;28;19935;-86
2021/09/24 09:04:32;;;;;;;;;;;;;;;;;;5053205;28;19932;-86
2021/09/24 09:07:04;;;;;;;;;;;;;;;;;;5083184;28;20124;-84
2021/09/24 09:09:34;;;;;;;;;;;;;;;;;;5061210;28;19935;-85
2021/09/24 09:12:09;;;;;;;;;;;;;;;;;;5089911;28;20437;-87
2021/09/24 09:14:38;;;;;;;;;;;;;;;;;;5064454;28;19932;-85
2021/09/24 09:17:21;;;;;;;;;;;;;;;;;;5070964;28;19924;-87
2021/09/24 09:19:49;;;;;;;;;;;;;;;;;;5072604;28;20309;-87
2021/09/24 09:22:21;;;;;;;;;;;;;;;;;;5056345;28;20216;-86
2021/09/24 09:24:50;;;;;;;;;;;;;;;;;;5078933;28;20145;-87
2021/09/24 09:27:19;;;;;;;;;;;;;;;;;;5086587;28;20310;-85
2021/09/24 09:29:57;;;;;;;;;;;;;;;;;;5094302;28;19924;-84
2021/09/24 09:32:26;;;;;;;;;;;;;;;;;;5069614;28;19931;-83
2021/09/24 09:34:54;;;;;;;;;;;;;;;;;;5076210;28;19932;-85
2021/09/24 09:37:22;;;;;;;;;;;;;;;;;;5093764;28;19924;-86
2021/09/24 09:40:02;;;;;;;;;;;;;;;;;;5077298;28;19924;-84
2021/09/24 09:42:34;;;;;;;;;;;;;;;;;;5097586;28;19911;-84
2021/09/24 09:45:03;;;;;;;;;;;;;;;;;;5099440;28;19924;-84
2021/09/24 09:47:31;;;;;;;;;;;;;;;;;;5078887;28;19938;-84
2021/09/24 09:50:07;;;;;;;;;;;;;;;;;;5080763;28;19928;-82
2021/09/24 09:52:46;;;;;;;;;;;;;;;;;;5078891;28;20302;-84
2021/09/24 09:55:15;;;;;;;;;;;;;;;;;;5078748;28;19924;-82
2021/09/24 09:57:44;;;;;;;;;;;;;;;;;;5089412;28;19931;-82
2021/09/24 10:00:12;;;;;;;;;;;;;;;;;;5093081;28;20311;-82
2021/09/24 10:02:41;;;;;;;;;;;;;;;;;;5078013;28;20256;-82
2021/09/24 10:05:09;;;;;;;;;;;;;;;;;;5077083;28;19946;-82
2021/09/24 10:07:38;;;;;;;;;;;;;;;;;;5074361;28;19928;-84
2021/09/24 10:10:07;;;;;;;;;;;;;;;;;;5075321;28;19924;-82
2021/09/24 10:12:37;;;;;;;;;;;;;;;;;;5090343;28;19924;-82
2021/09/24 10:15:07;;;;;;;;;;;;;;;;;;5082064;28;19924;-82
2021/09/24 10:17:36;;;;;;;;;;;;;;;;;;5071793;28;19932;-82
2021/09/24 10:20:05;;;;;;;;;;;;;;;;;;5075994;28;19923;-82
2021/09/24 10:22:33;;;;;;;;;;;;;;;;;;5077205;28;19924;-80
2021/09/24 10:25:01;;;;;;;;;;;;;;;;;;5068935;28;19930;-81
2021/09/24 10:27:32;;;;;;;;;;;;;;;;;;5109385;28;19928;-83
2021/09/24 10:30:06;;;;;;;;;;;;;;;;;;5106973;28;19938;-82
2021/09/24 10:32:34;;;;;;;;;;;;;;;;;;5083973;28;19931;-80
2021/09/24 10:35:03;;;;;;;;;;;;;;;;;;5091350;28;19928;-81
2021/09/24 10:37:32;;;;;;;;;;;;;;;;;;5094116;28;19924;-81
2021/09/24 10:40:01;;;;;;;;;;;;;;;;;;5080215;28;19932;-83
2021/09/24 10:42:42;;;;;;;;;;;;;;;;;;5096305;28;19928;-83
2021/09/24 10:45:13;;;;;;;;;;;;;;;;;;5072072;28;19935;-83
2021/09/24 10:47:52;;;;;;;;;;;;;;;;;;5079924;28;19924;-83
2021/09/24 10:50:39;;;;;;;;;;;;;;;;;;5092807;28;19931;-82
2021/09/24 10:53:13;;;;;;;;;;;;;;;;;;5088674;28;19924;-83
2021/09/24 10:55:43;;;;;;;;;;;;;;;;;;5079775;28;19931;-82
2021/09/24 10:58:12;;;;;;;;;;;;;;;;;;5101877;28;19931;-82
2021/09/24 11:00:47;;;;;;;;;;;;;;;;;;5099373;28;20452;-82
2021/09/24 11:03:16;;;;;;;;;;;;;;;;;;5069389;28;19954;-82
2021/09/24 11:05:54;;;;;;;;;;;;;;;;;;5076569;28;19924;-82
2021/09/24 11:08:36;;;;;;;;;;;;;;;;;;5076523;28;19939;-83
2021/09/24 11:11:05;;;;;;;;;;;;;;;;;;5077354;28;19935;-82
2021/09/24 11:13:33;;;;;;;;;;;;;;;;;;5097117;28;20225;-82
2021/09/24 11:16:04;;;;;;;;;;;;;;;;;;5075096;28;19924;-82
2021/09/24 11:18:45;;;;;;;;;;;;;;;;;;5074885;28;19925;-82
2021/09/24 11:21:13;;;;;;;;;;;;;;;;;;5096078;28;19924;-82
2021/09/24 11:23:41;;;;;;;;;;;;;;;;;;5080670;28;20302;-82
2021/09/24 11:26:10;;;;;;;;;;;;;;;;;;5080912;28;20321;-83
2021/09/24 11:28:39;;;;;;;;;;;;;;;;;;5091090;28;19928;-83
2021/09/24 11:31:09;;;;;;;;;;;;;;;;;;5077615;28;19931;-83
2021/09/24 11:33:45;;;;;;;;;;;;;;;;;;5078092;28;20315;-82
2021/09/24 11:36:16;;;;;;;;;;;;;;;;;;5080392;28;19932;-85
2021/09/24 11:38:44;;;;;;;;;;;;;;;;;;5077594;28;19924;-86
2021/09/24 11:41:14;;;;;;;;;;;;;;;;;;5084097;28;19925;-85
2021/09/24 11:43:42;;;;;;;;;;;;;;;;;;5071564;28;19924;-83
2021/09/24 11:46:13;;;;;;;;;;;;;;;;;;5065409;28;19931;-84
2021/09/24 11:48:41;;;;;;;;;;;;;;;;;;5073510;28;19931;-83
2021/09/24 11:51:10;;;;;;;;;;;;;;;;;;5092763;28;19923;-84
2021/09/24 11:53:49;;;;;;;;;;;;;;;;;;5094777;28;19924;-84
2021/09/24 11:56:17;;;;;;;;;;;;;;;;;;5069955;28;19935;-85
2021/09/24 11:58:46;;;;;;;;;;;;;;;;;;5086792;28;19931;-82
2021/09/24 12:01:16;;;;;;;;;;;;;;;;;;5072409;28;19947;-84
2021/09/24 12:03:45;;;;;;;;;;;;;;;;;;5074837;28;19928;-85
2021/09/24 12:06:14;;;;;;;;;;;;;;;;;;5092052;28;19908;-87
2021/09/24 12:08:45;;;;;;;;;;;;;;;;;;5108958;28;20358;-85
2021/09/24 12:11:14;;;;;;;;;;;;;;;;;;5073809;28;19924;-85
2021/09/24 12:13:44;;;;;;;;;;;;;;;;;;5072344;28;19931;-85
2021/09/24 12:16:13;;;;;;;;;;;;;;;;;;5072288;28;19932;-83
2021/09/24 12:18:53;;;;;;;;;;;;;;;;;;5075314;28;19927;-84
2021/09/24 12:21:23;;;;;;;;;;;;;;;;;;5066040;28;19936;-83
2021/09/24 12:23:52;;;;;;;;;;;;;;;;;;5070088;28;19924;-82
2021/09/24 12:26:22;;;;;;;;;;;;;;;;;;5073916;28;19946;-83
2021/09/24 12:28:58;;;;;;;;;;;;;;;;;;5092053;28;19931;-83
2021/09/24 12:31:37;;;;;;;;;;;;;;;;;;5074040;28;19924;-85
2021/09/24 12:34:07;;;;;;;;;;;;;;;;;;5082753;28;19928;-84
2021/09/24 12:36:36;;;;;;;;;;;;;;;;;;5085814;28;19923;-83
2021/09/24 12:39:13;;;;;;;;;;;;;;;;;;5086047;28;19932;-82
2021/09/24 12:41:41;;;;;;;;;;;;;;;;;;5088122;28;19931;-84
2021/09/24 12:44:11;;;;;;;;;;;;;;;;;;5072748;28;20216;-83
2021/09/24 12:46:40;;;;;;;;;;;;;;;;;;5068770;28;20278;-84
2021/09/24 12:49:10;;;;;;;;;;;;;;;;;;5071335;28;19924;-82
2021/09/24 12:51:39;;;;;;;;;;;;;;;;;;5069964;28;19931;-84
2021/09/24 12:54:09;;;;;;;;;;;;;;;;;;5070881;28;20390;-84
2021/09/24 12:56:38;;;;;;;;;;;;;;;;;;5073675;28;19924;-84
2021/09/24 12:59:07;;;;;;;;;;;;;;;;;;5065614;28;19924;-83
2021/09/24 13:01:40;;;;;;;;;;;;;;;;;;5092292;28;19932;-85
2021/09/24 13:04:10;;;;;;;;;;;;;;;;;;5078635;28;19924;-84
2021/09/24 13:06:39;;;;;;;;;;;;;;;;;;5068985;28;19928;-85
2021/09/24 13:09:08;;;;;;;;;;;;;;;;;;5074001;28;19932;-86
2021/09/24 13:11:36;;;;;;;;;;;;;;;;;;5073619;28;19931;-84
2021/09/24 13:14:05;;;;;;;;;;;;;;;;;;5089621;28;20293;-83
2021/09/24 13:16:33;;;;;;;;;;;;;;;;;;5070465;28;19924;-85
2021/09/24 13:19:02;;;;;;;;;;;;;;;;;;5071494;28;19924;-84
2021/09/24 13:21:33;;;;;;;;;;;;;;;;;;5071051;28;19924;-85
2021/09/24 13:24:02;;;;;;;;;;;;;;;;;;5091700;28;19928;-84
2021/09/24 13:26:31;;;;;;;;;;;;;;;;;;5089453;28;19928;-84
2021/09/24 13:29:00;;;;;;;;;;;;;;;;;;5074186;28;19924;-84
2021/09/24 13:31:28;;;;;;;;;;;;;;;;;;5072518;28;19931;-83
2021/09/24 13:34:26;;;;;;;;;;;;;;;;;;5092874;22;19925;-84
2021/09/24 13:37:12;;;;;;;;;;;;;;;;;;5035367;28;19937;-85
2021/09/24 13:39:43;;;;;;;;;;;;;;;;;;5018103;28;19925;-84
2021/09/24 13:42:11;;;;;;;;;;;;;;;;;;5032048;28;19929;-84
2021/09/24 13:44:41;;;;;;;;;;;;;;;;;;5015845;28;19929;-85
2021/09/24 13:47:17;;;;;;;;;;;;;;;;;;5008966;28;19925;-84
2021/09/24 13:49:55;;;;;;;;;;;;;;;;;;5013627;28;19925;-85
2021/09/24 13:52:30;;;;;;;;;;;;;;;;;;5014579;28;19925;-85
2021/09/24 13:54:59;;;;;;;;;;;;;;;;;;5025890;28;19925;-84
2021/09/24 13:57:29;;;;;;;;;;;;;;;;;;5012648;28;19925;-84
2021/09/24 13:59:58;;;;;;;;;;;;;;;;;;5013204;28;20007;-85
2021/09/24 14:02:27;;;;;;;;;;;;;;;;;;5030790;28;19932;-85
2021/09/24 14:04:55;;;;;;;;;;;;;;;;;;5006402;28;19925;-84
2021/09/24 14:07:24;;;;;;;;;;;;;;;;;;5010878;28;19929;-84
2021/09/24 14:09:54;;;;;;;;;;;;;;;;;;5003969;28;20302;-85
2021/09/24 14:12:24;;;;;;;;;;;;;;;;;;5015781;28;19936;-84
2021/09/24 14:14:52;;;;;;;;;;;;;;;;;;5010669;28;20430;-85
2021/09/24 14:17:22;;;;;;;;;;;;;;;;;;5012520;28;19925;-84
2021/09/24 14:19:50;;;;;;;;;;;;;;;;;;5016505;28;19932;-85
2021/09/24 14:22:18;;;;;;;;;;;;;;;;;;5018004;28;19925;-84
2021/09/24 14:24:47;;;;;;;;;;;;;;;;;;5010219;28;19933;-85
2021/09/24 14:27:17;;;;;;;;;;;;;;;;;;5004815;28;19925;-86
2021/09/24 14:29:45;;;;;;;;;;;;;;;;;;5031051;28;19910;-85
2021/09/24 14:32:14;;;;;;;;;;;;;;;;;;5053501;28;19913;-85
2021/09/24 14:34:43;;;;;;;;;;;;;;;;;;5029498;28;19931;-84
2021/09/24 14:37:11;;;;;;;;;;;;;;;;;;5023577;28;19936;-85
2021/09/24 14:39:39;;;;;;;;;;;;;;;;;;5008687;28;19929;-85
2021/09/24 14:42:08;;;;;;;;;;;;;;;;;;5025015;28;19936;-86
2021/09/24 14:44:37;;;;;;;;;;;;;;;;;;5011059;28;20434;-86
2021/09/24 14:47:07;;;;;;;;;;;;;;;;;;5029982;28;20311;-84
2021/09/24 14:49:35;;;;;;;;;;;;;;;;;;5008676;28;20338;-84
2021/09/24 14:52:03;;;;;;;;;;;;;;;;;;5010567;28;19929;-85
2021/09/24 14:54:32;;;;;;;;;;;;;;;;;;5008468;28;19930;-85
2021/09/24 14:57:10;;;;;;;;;;;;;;;;;;5008417;28;19936;-85
2021/09/24 14:59:45;;;;;;;;;;;;;;;;;;5010827;28;20016;-83
2021/09/24 15:02:20;;;;;;;;;;;;;;;;;;5004184;28;20422;-85
2021/09/24 15:04:59;;;;;;;;;;;;;;;;;;5000745;28;19925;-83
2021/09/24 15:07:29;;;;;;;;;;;;;;;;;;5026197;28;19925;-84
2021/09/24 15:10:01;;;;;;;;;;;;;;;;;;5012481;28;20299;-85
2021/09/24 15:12:34;;;;;;;;;;;;;;;;;;5021253;28;20400;-84
2021/09/24 15:15:08;;;;;;;;;;;;;;;;;;5007885;28;19925;-85
2021/09/24 15:17:37;;;;;;;;;;;;;;;;;;5007163;28;19997;-84
2021/09/24 15:20:06;;;;;;;;;;;;;;;;;;5004013;28;19929;-85
2021/09/24 15:22:34;;;;;;;;;;;;;;;;;;4994787;28;19932;-85
2021/09/24 15:25:03;;;;;;;;;;;;;;;;;;5008872;28;19929;-85
2021/09/24 15:27:32;;;;;;;;;;;;;;;;;;5015505;28;19941;-85
2021/09/24 15:30:00;;;;;;;;;;;;;;;;;;5020805;28;19932;-87
2021/09/24 15:32:30;;;;;;;;;;;;;;;;;;5017773;28;19925;-85
2021/09/24 15:34:58;;;;;;;;;;;;;;;;;;5013872;28;19933;-86
2021/09/24 15:37:26;;;;;;;;;;;;;;;;;;5014773;28;20383;-86
2021/09/24 15:39:55;;;;;;;;;;;;;;;;;;5013666;28;20314;-85
2021/09/24 15:42:23;;;;;;;;;;;;;;;;;;5016797;28;20395;-85
2021/09/24 15:44:51;;;;;;;;;;;;;;;;;;5015738;28;20303;-86
2021/09/24 15:47:20;;;;;;;;;;;;;;;;;;5018690;28;20490;-85
2021/09/24 15:49:49;;;;;;;;;;;;;;;;;;5015542;28;19929;-86
2021/09/24 15:52:17;;;;;;;;;;;;;;;;;;5017982;28;19936;-83
2021/09/24 15:54:46;;;;;;;;;;;;;;;;;;5040517;28;19925;-83
2021/09/24 15:57:14;;;;;;;;;;;;;;;;;;5039324;28;19924;-83
2021/09/24 15:59:42;;;;;;;;;;;;;;;;;;5016595;28;19993;-83
2021/09/24 16:02:11;;;;;;;;;;;;;;;;;;5023554;28;19936;-84
2021/09/24 16:04:39;;;;;;;;;;;;;;;;;;5015347;28;19948;-84
2021/09/24 16:07:09;;;;;;;;;;;;;;;;;;5009839;28;19925;-84
2021/09/24 16:09:37;;;;;;;;;;;;;;;;;;5016079;28;20414;-85
2021/09/24 16:12:06;;;;;;;;;;;;;;;;;;5021345;28;20333;-83
2021/09/24 16:14:34;;;;;;;;;;;;;;;;;;5015264;28;19984;-83
2021/09/24 16:17:03;;;;;;;;;;;;;;;;;;5030501;28;19931;-85
2021/09/24 16:19:32;;;;;;;;;;;;;;;;;;5014961;28;19929;-85
2021/09/24 16:22:00;;;;;;;;;;;;;;;;;;5033596;28;20379;-84
2021/09/24 16:24:30;;;;;;;;;;;;;;;;;;5015773;28;19932;-84
2021/09/24 16:26:58;;;;;;;;;;;;;;;;;;5018248;28;19932;-85
2021/09/24 16:29:27;;;;;;;;;;;;;;;;;;5031780;28;19926;-85
2021/09/24 16:31:55;;;;;;;;;;;;;;;;;;5012028;28;19925;-86
2021/09/24 16:34:23;;;;;;;;;;;;;;;;;;5003757;28;20081;-85
2021/09/24 16:37:02;;;;;;;;;;;;;;;;;;5024815;28;19940;-87
2021/09/24 16:39:55;;;;;;;;;;;;;;;;;;5014146;28;19931;-86
2021/09/24 16:42:26;;;;;;;;;;;;;;;;;;5016190;28;19929;-85
2021/09/24 16:44:56;;;;;;;;;;;;;;;;;;5014604;28;20387;-85
2021/09/24 16:47:25;;;;;;;;;;;;;;;;;;5014946;28;19948;-87
2021/09/24 16:49:53;;;;;;;;;;;;;;;;;;5011285;28;19933;-84
2021/09/24 16:52:22;;;;;;;;;;;;;;;;;;5011861;28;19932;-87
2021/09/24 16:54:51;;;;;;;;;;;;;;;;;;5057023;28;19938;-88
2021/09/24 16:57:21;;;;;;;;;;;;;;;;;;5032342;28;19936;-87
2021/09/24 16:59:49;;;;;;;;;;;;;;;;;;5024498;28;19926;-87
2021/09/24 17:02:23;;;;;;;;;;;;;;;;;;5012524;28;19925;-85